Time;durP1;ratioP1;P1;durP2;ratioP2;P2;SDS_P1;SDS_P2;PMS_P1;PMS_P2;Temp;Humidity;BMP_temperature;BMP_pressure;BME280_temperature;BME280_humidity;BME280_pressure;Samples;Min_cycle;Max_cycle;Signal;HPM_P1;HPM_P2
2023/03/31 00:04:58;;;;;;;8.30;1.60;;;10.50;99.90;;;;;;15399333;23;20332;-79
2023/03/31 00:11:03;;;;;;;7.47;1.63;;;10.40;99.90;;;;;;15435147;23;20442;-79
2023/03/31 00:17:05;;;;;;;8.48;1.88;;;10.40;99.90;;;;;;15405261;23;20032;-79
2023/03/31 00:23:09;;;;;;;6.50;1.30;;;10.40;99.90;;;;;;15384981;23;20059;-79
2023/03/31 00:29:12;;;;;;;7.13;1.90;;;10.40;99.90;;;;;;15422295;23;20529;-78
2023/03/31 00:35:14;;;;;;;6.15;1.27;;;10.30;99.90;;;;;;15402980;23;20036;-79
2023/03/31 00:41:17;;;;;;;5.47;1.20;;;10.30;99.90;;;;;;15403802;23;20028;-79
2023/03/31 00:47:19;;;;;;;6.70;1.30;;;10.20;99.90;;;;;;15405445;23;20072;-79
2023/03/31 00:53:27;;;;;;;5.40;1.45;;;10.30;99.90;;;;;;15408030;23;20056;-79
2023/03/31 00:59:33;;;;;;;8.13;1.80;;;10.30;99.90;;;;;;15409965;23;20465;-79
2023/03/31 01:05:58;;;;;;;5.88;1.50;;;10.20;99.90;;;;;;15407162;23;20398;-78
2023/03/31 01:12:06;;;;;;;7.88;1.80;;;10.30;99.90;;;;;;15408985;23;20795;-77
2023/03/31 01:18:10;;;;;;;6.68;1.30;;;10.20;99.90;;;;;;15409999;23;20406;-78
2023/03/31 01:24:30;;;;;;;7.57;1.45;;;10.10;99.90;;;;;;15405857;23;20029;-79
2023/03/31 01:30:57;;;;;;;13.35;1.38;;;9.90;99.90;;;;;;15408500;23;20477;-79
2023/03/31 01:37:14;;;;;;;8.23;1.33;;;9.80;99.90;;;;;;15457204;23;20024;-78
2023/03/31 01:43:46;;;;;;;6.85;2.25;;;9.80;99.90;;;;;;15508604;22;20099;-78
2023/03/31 01:49:56;;;;;;;5.20;1.40;;;9.70;99.90;;;;;;15501158;23;20110;-78
2023/03/31 01:56:15;;;;;;;4.63;1.50;;;9.60;99.90;;;;;;15501951;23;20024;-78
2023/03/31 02:02:23;;;;;;;6.10;1.30;;;9.50;99.90;;;;;;15501900;22;20073;-78
2023/03/31 02:08:35;;;;;;;7.20;1.38;;;9.50;99.90;;;;;;15500110;23;20094;-79
2023/03/31 02:14:41;;;;;;;5.25;1.33;;;9.40;99.90;;;;;;15500933;22;20031;-79
2023/03/31 02:20:48;;;;;;;4.03;1.50;;;9.50;99.90;;;;;;15502223;23;20520;-79
2023/03/31 02:27:14;;;;;;;6.38;1.60;;;9.50;99.90;;;;;;15504535;23;20334;-79
2023/03/31 02:33:16;;;;;;;8.18;1.70;;;9.50;99.90;;;;;;15468239;22;20092;-78
2023/03/31 02:39:23;;;;;;;7.90;1.42;;;9.40;99.90;;;;;;15400357;23;20082;-79
2023/03/31 02:45:44;;;;;;;6.55;1.17;;;9.40;99.90;;;;;;15401079;23;20047;-79
2023/03/31 02:52:21;;;;;;;7.25;1.60;;;9.40;99.90;;;;;;15401520;23;20627;-79
2023/03/31 02:58:39;;;;;;;5.15;1.20;;;9.50;99.90;;;;;;15403592;23;20372;-78
2023/03/31 03:04:48;;;;;;;5.15;1.30;;;9.50;99.90;;;;;;15403831;23;20024;-79
2023/03/31 03:11:02;;;;;;;6.43;1.35;;;9.60;99.90;;;;;;15427908;23;20096;-79
2023/03/31 03:17:22;;;;;;;9.32;1.75;;;9.70;99.90;;;;;;15437632;23;20284;-79
2023/03/31 03:23:24;;;;;;;6.65;1.27;;;9.70;99.90;;;;;;15411263;23;20024;-78
2023/03/31 03:29:27;;;;;;;10.23;1.48;;;9.70;99.90;;;;;;15437229;23;20021;-79
2023/03/31 03:35:29;;;;;;;7.75;1.50;;;9.80;99.90;;;;;;15434902;23;20712;-79
2023/03/31 03:41:32;;;;;;;8.18;1.35;;;9.80;99.90;;;;;;15410488;23;20024;-80
2023/03/31 03:47:34;;;;;;;9.70;1.27;;;9.90;99.90;;;;;;15436670;23;20029;-79
2023/03/31 03:53:37;;;;;;;7.32;1.17;;;9.90;99.90;;;;;;15406382;23;20099;-78
2023/03/31 03:59:38;;;;;;;5.00;1.23;;;9.90;99.90;;;;;;15408987;23;20098;-79
2023/03/31 04:05:41;;;;;;;5.70;1.58;;;9.70;99.90;;;;;;15432445;23;20102;-80
2023/03/31 04:11:43;;;;;;;10.13;1.55;;;9.60;99.90;;;;;;15429247;23;20016;-79
2023/03/31 04:17:49;;;;;;;7.70;1.65;;;9.50;99.90;;;;;;15427063;23;20016;-79
2023/03/31 04:23:57;;;;;;;7.22;1.40;;;9.40;99.90;;;;;;15404181;23;20047;-78
2023/03/31 04:29:59;;;;;;;7.80;1.65;;;9.40;99.90;;;;;;15408209;23;20012;-78
2023/03/31 04:36:05;;;;;;;6.13;1.50;;;9.40;99.90;;;;;;15433317;23;20031;-79
2023/03/31 04:42:08;;;;;;;8.30;1.77;;;9.30;99.90;;;;;;15435399;23;20079;-80
2023/03/31 04:48:10;;;;;;;8.65;1.70;;;9.20;99.90;;;;;;15433301;23;20035;-79
2023/03/31 04:54:12;;;;;;;11.50;2.30;;;9.30;99.90;;;;;;15426386;23;20099;-79
2023/03/31 05:00:18;;;;;;;6.05;1.80;;;9.20;99.90;;;;;;15429576;23;20070;-80
2023/03/31 05:06:20;;;;;;;9.02;2.15;;;9.20;99.90;;;;;;15402204;23;20410;-81
2023/03/31 05:12:22;;;;;;;7.88;2.60;;;9.20;99.90;;;;;;15398629;23;20024;-81
2023/03/31 05:18:24;;;;;;;12.32;2.72;;;9.20;99.90;;;;;;15402336;23;20025;-81
2023/03/31 05:24:29;;;;;;;9.10;2.47;;;9.20;99.90;;;;;;15400375;23;20072;-81
2023/03/31 05:30:31;;;;;;;8.38;2.50;;;9.10;99.90;;;;;;15401435;23;20343;-82
2023/03/31 05:36:34;;;;;;;11.63;2.55;;;9.20;99.90;;;;;;15426577;23;20494;-81
2023/03/31 05:42:36;;;;;;;10.15;2.55;;;9.20;99.90;;;;;;15404956;23;20031;-81
2023/03/31 05:48:38;;;;;;;6.68;1.83;;;9.20;99.90;;;;;;15404286;23;20062;-81
2023/03/31 05:54:41;;;;;;;11.10;2.15;;;9.20;99.90;;;;;;15427381;23;20051;-81
2023/03/31 06:00:44;;;;;;;7.72;1.83;;;9.30;99.90;;;;;;15428663;23;20100;-81
2023/03/31 06:06:49;;;;;;;7.55;1.60;;;9.30;99.90;;;;;;15400280;23;20481;-81
2023/03/31 06:12:51;;;;;;;4.95;1.30;;;9.40;99.90;;;;;;15402837;23;20031;-81
2023/03/31 06:18:54;;;;;;;7.55;1.85;;;9.40;99.90;;;;;;15400701;23;20020;-81
2023/03/31 06:24:56;;;;;;;4.45;1.45;;;9.40;99.90;;;;;;15400154;23;20322;-81
2023/03/31 06:31:03;;;;;;;6.20;1.40;;;9.40;99.90;;;;;;15427434;23;20028;-81
2023/03/31 06:37:06;;;;;;;5.88;1.63;;;9.40;99.90;;;;;;15457030;23;20122;-80
2023/03/31 06:43:08;;;;;;;6.72;1.50;;;9.40;99.90;;;;;;15502728;23;20081;-80
2023/03/31 06:49:10;;;;;;;6.03;1.33;;;9.40;99.90;;;;;;15499357;23;20095;-80
2023/03/31 06:55:14;;;;;;;5.63;1.50;;;9.50;99.90;;;;;;15502997;22;20426;-80
2023/03/31 07:01:16;;;;;;;5.13;1.67;;;9.50;99.90;;;;;;15500710;23;20020;-79
2023/03/31 07:07:18;;;;;;;7.15;1.85;;;9.60;99.90;;;;;;15501971;23;20024;-80
2023/03/31 07:13:20;;;;;;;5.05;1.30;;;9.60;99.90;;;;;;15502680;22;20595;-80
2023/03/31 07:19:22;;;;;;;6.53;1.45;;;9.70;99.90;;;;;;15501709;23;20027;-81
2023/03/31 07:25:24;;;;;;;5.72;1.40;;;9.70;99.90;;;;;;15503055;22;20514;-79
2023/03/31 07:31:26;;;;;;;7.70;1.33;;;9.90;99.90;;;;;;15505255;22;20024;-79
2023/03/31 07:37:33;;;;;;;5.22;1.13;;;9.90;99.90;;;;;;15447706;22;20064;-79
2023/03/31 07:43:35;;;;;;;6.13;1.38;;;10.00;99.90;;;;;;15403721;23;20529;-79
2023/03/31 07:49:37;;;;;;;4.65;1.10;;;10.00;99.90;;;;;;15428473;23;20101;-80
2023/03/31 07:55:39;;;;;;;4.30;1.17;;;10.10;99.90;;;;;;15427437;23;20079;-80
2023/03/31 08:01:41;;;;;;;5.15;1.05;;;10.00;99.90;;;;;;15431592;23;20048;-79
2023/03/31 08:07:47;;;;;;;5.47;1.20;;;10.10;99.90;;;;;;15431092;23;20024;-80
2023/03/31 08:13:49;;;;;;;5.05;1.20;;;10.20;99.90;;;;;;15406889;23;20031;-79
2023/03/31 08:19:51;;;;;;;7.80;1.20;;;10.30;99.90;;;;;;15434549;23;20032;-79
2023/03/31 08:25:54;;;;;;;4.75;1.13;;;10.30;99.90;;;;;;15406580;23;20021;-79
2023/03/31 08:31:56;;;;;;;4.40;1.00;;;10.20;99.90;;;;;;15409427;23;20394;-79
2023/03/31 08:37:58;;;;;;;3.65;1.10;;;10.20;99.90;;;;;;15488284;23;20031;-79
2023/03/31 08:44:06;;;;;;;3.03;1.00;;;10.20;99.90;;;;;;15510497;22;20035;-80
2023/03/31 08:50:16;;;;;;;5.32;1.23;;;10.20;99.90;;;;;;15516471;23;20032;-80
2023/03/31 08:56:21;;;;;;;3.33;0.80;;;10.10;99.90;;;;;;15530508;22;20370;-80
2023/03/31 09:02:47;;;;;;;3.70;1.08;;;10.10;99.90;;;;;;15511250;22;20024;-80
2023/03/31 09:08:56;;;;;;;3.45;1.25;;;10.00;99.90;;;;;;15508082;22;20020;-81
2023/03/31 09:15:13;;;;;;;3.33;0.95;;;9.90;99.90;;;;;;15506583;23;20047;-80
2023/03/31 09:21:20;;;;;;;5.82;1.67;;;9.80;99.90;;;;;;15509510;22;20026;-81
2023/03/31 09:27:25;;;;;;;5.43;1.40;;;9.80;99.90;;;;;;15505287;23;20016;-81
2023/03/31 09:33:32;;;;;;;4.60;1.20;;;9.70;99.90;;;;;;15495257;22;20060;-81
2023/03/31 09:39:34;;;;;;;5.60;1.20;;;9.80;99.90;;;;;;15407924;23;20028;-82
2023/03/31 09:45:36;;;;;;;6.47;1.10;;;9.70;99.90;;;;;;15407610;23;20462;-81
2023/03/31 09:51:43;;;;;;;3.30;0.80;;;9.60;99.90;;;;;;15430555;23;20103;-81
2023/03/31 09:58:03;;;;;;;2.20;1.48;;;9.60;99.90;;;;;;12601133;27;20213;-38
2023/03/31 10:04:07;;;;;;;4.65;1.25;;;9.70;99.90;;;;;;12544410;28;20074;-37
2023/03/31 10:10:17;;;;;;;;;;;9.80;99.90;;;;;;12540525;28;20049;-38
2023/03/31 10:16:28;;;;;;;3.35;0.75;;;9.70;99.90;;;;;;12550646;28;19928;-38
2023/03/31 10:22:31;;;;;;;4.28;0.90;;;9.80;99.90;;;;;;12550778;28;20520;-39
2023/03/31 10:28:35;;;;;;;2.25;0.70;;;9.90;99.90;;;;;;12540291;28;20134;-38
2023/03/31 10:34:41;;;;;;;5.70;1.00;;;9.80;99.90;;;;;;12508251;28;20038;-38
2023/03/31 10:40:51;;;;;;;5.25;0.80;;;9.90;99.90;;;;;;12500206;28;20106;-38
2023/03/31 10:46:53;;;;;;;3.15;0.98;;;10.00;99.90;;;;;;12500281;28;20049;-39
2023/03/31 10:53:06;;;;;;;4.97;0.95;;;10.20;99.90;;;;;;12500246;28;20093;-38
2023/03/31 10:59:29;;;;;;;3.40;0.90;;;10.40;99.90;;;;;;12490228;28;20061;-38
2023/03/31 11:05:58;;;;;;;1.73;0.90;;;10.50;99.90;;;;;;12477189;28;20084;-38
2023/03/31 11:12:05;;;;;;;3.65;1.05;;;10.70;99.90;;;;;;12449541;28;20501;-38
2023/03/31 11:18:31;;;;;;;5.20;1.10;;;10.90;99.90;;;;;;12463543;28;20126;-38
2023/03/31 11:24:43;;;;;;;4.53;1.17;;;11.00;99.90;;;;;;12457395;28;20120;-39
2023/03/31 11:31:07;;;;;;;3.58;0.98;;;11.10;99.90;;;;;;12453902;28;20061;-38
2023/03/31 11:37:20;;;;;;;4.43;1.40;;;11.20;99.90;;;;;;12458234;28;20050;-38
2023/03/31 11:43:37;;;;;;;5.10;1.25;;;11.10;99.90;;;;;;12463650;28;20056;-38
2023/03/31 11:49:42;;;;;;;5.53;2.58;;;10.90;99.90;;;;;;12471441;28;20042;-39
2023/03/31 11:55:47;;;;;;;6.85;1.65;;;10.60;99.90;;;;;;12458761;28;20156;-38
2023/03/31 12:01:58;;;;;;;5.72;1.90;;;10.50;99.90;;;;;;12444267;28;20045;-38
2023/03/31 12:08:13;;;;;;;7.18;1.40;;;10.50;99.90;;;;;;12457709;28;20096;-38
2023/03/31 12:14:33;;;;;;;5.97;1.60;;;10.50;99.90;;;;;;12453762;28;20041;-38
2023/03/31 12:20:44;;;;;;;5.88;1.50;;;10.50;99.90;;;;;;12459941;28;20049;-38
2023/03/31 12:27:04;;;;;;;6.72;2.00;;;10.50;99.90;;;;;;12466185;28;20075;-38
2023/03/31 12:33:26;;;;;;;11.02;2.03;;;10.60;99.90;;;;;;12448864;28;20046;-38
2023/03/31 12:39:43;;;;;;;6.88;2.00;;;10.60;99.90;;;;;;12464627;28;20050;-38
2023/03/31 12:46:00;;;;;;;6.75;2.20;;;10.90;99.90;;;;;;12455826;28;20045;-38
2023/03/31 12:52:07;;;;;;;10.20;2.28;;;11.50;99.90;;;;;;12469157;28;20049;-38
2023/03/31 12:58:23;;;;;;;6.78;2.00;;;12.00;99.90;;;;;;12450255;28;20128;-38
2023/03/31 13:04:26;;;;;;;9.40;2.30;;;12.20;99.90;;;;;;12450834;28;20046;-38
2023/03/31 13:10:30;;;;;;;8.45;1.90;;;12.70;99.90;;;;;;12464383;28;20092;-38
2023/03/31 13:16:34;;;;;;;6.35;1.80;;;13.40;99.90;;;;;;12461548;28;20037;-39
2023/03/31 13:22:40;;;;;;;5.10;1.60;;;13.50;99.90;;;;;;12475376;28;20136;-39
2023/03/31 13:28:42;;;;;;;6.03;1.60;;;13.10;99.90;;;;;;12448291;28;20050;-39
2023/03/31 13:35:02;;;;;;;8.32;1.42;;;13.00;99.90;;;;;;12466565;28;20045;-39
2023/03/31 13:41:19;;;;;;;8.35;1.70;;;12.80;99.90;;;;;;12462631;28;20406;-38
2023/03/31 13:47:35;;;;;;;6.28;1.48;;;12.40;99.90;;;;;;12456366;28;20562;-38
2023/03/31 13:54:02;;;;;;;3.20;1.23;;;12.00;99.90;;;;;;12444181;28;20485;-38
2023/03/31 14:00:25;;;;;;;5.10;1.95;;;11.40;99.90;;;;;;12462474;28;20077;-38
2023/03/31 14:06:51;;;;;;;6.13;2.00;;;11.10;99.90;;;;;;12425211;28;20425;-38
2023/03/31 14:13:07;;;;;;;7.85;1.77;;;10.90;99.90;;;;;;12455010;28;20049;-38
2023/03/31 14:19:27;;;;;;;10.32;2.33;;;10.90;99.90;;;;;;12475644;28;20046;-38
2023/03/31 14:25:32;;;;;;;10.57;1.90;;;11.10;99.90;;;;;;12467534;28;20038;-39
2023/03/31 14:31:50;;;;;;;6.82;1.60;;;11.10;99.90;;;;;;12458734;28;20089;-38
2023/03/31 14:37:53;;;;;;;9.55;1.98;;;11.00;99.90;;;;;;12439141;28;20045;-38
2023/03/31 14:44:00;;;;;;;12.03;2.33;;;11.20;99.90;;;;;;12455224;28;20061;-38
2023/03/31 14:50:16;;;;;;;9.20;2.20;;;11.40;99.90;;;;;;12464811;28;20058;-40
2023/03/31 14:56:24;;;;;;;5.97;1.40;;;11.50;99.90;;;;;;12475562;28;20193;-40
2023/03/31 15:02:33;;;;;;;7.53;1.55;;;11.50;99.90;;;;;;12475751;28;20045;-39
2023/03/31 15:08:36;;;;;;;4.95;1.48;;;11.40;99.90;;;;;;12467959;28;20050;-40
2023/03/31 15:14:46;;;;;;;9.27;1.80;;;11.30;99.90;;;;;;12453750;28;20077;-39
2023/03/31 15:20:47;;;;;;;8.00;1.98;;;11.30;99.90;;;;;;12475133;28;20042;-40
2023/03/31 15:27:11;;;;;;;6.45;1.48;;;11.30;99.90;;;;;;12449924;28;20050;-39
2023/03/31 15:33:40;;;;;;;7.20;1.58;;;11.20;99.90;;;;;;12453961;28;20057;-38
2023/03/31 15:39:47;;;;;;;5.35;1.40;;;11.30;99.90;;;;;;12468212;28;20061;-38
2023/03/31 15:45:49;;;;;;;7.72;1.67;;;11.30;99.90;;;;;;12462030;28;20049;-38
2023/03/31 15:51:53;;;;;;;7.15;1.77;;;11.10;99.90;;;;;;12473550;28;20076;-38
2023/03/31 15:57:57;;;;;;;7.60;1.53;;;11.10;99.90;;;;;;12444699;28;20050;-38
2023/03/31 16:04:05;;;;;;;5.45;1.52;;;11.00;99.90;;;;;;12440200;28;20076;-38
2023/03/31 16:10:18;;;;;;;6.60;1.42;;;10.90;99.90;;;;;;12453210;28;20049;-39
2023/03/31 16:16:22;;;;;;;8.25;1.63;;;10.90;99.90;;;;;;12433836;28;20136;-38
2023/03/31 16:22:31;;;;;;;7.25;1.50;;;10.90;99.90;;;;;;12484608;28;20050;-38
2023/03/31 16:28:36;;;;;;;5.13;1.15;;;10.90;99.90;;;;;;12462137;28;20486;-39
2023/03/31 16:34:57;;;;;;;8.32;1.50;;;10.80;99.90;;;;;;12459169;28;20045;-38
2023/03/31 16:40:59;;;;;;;7.80;1.60;;;10.80;99.90;;;;;;12481901;28;20153;-38
2023/03/31 16:47:01;;;;;;;8.38;1.40;;;10.80;99.90;;;;;;12468751;28;20128;-39
2023/03/31 16:53:03;;;;;;;5.85;1.40;;;10.80;99.90;;;;;;12472723;28;20045;-38
2023/03/31 16:59:07;;;;;;;5.93;1.90;;;10.70;99.90;;;;;;12457514;28;20794;-37
2023/03/31 17:05:08;;;;;;;9.33;1.50;;;10.70;99.90;;;;;;12461439;28;20060;-38
2023/03/31 17:11:16;;;;;;;7.18;1.70;;;10.70;99.90;;;;;;12451503;28;20459;-39
2023/03/31 17:17:18;;;;;;;5.85;1.40;;;10.60;99.90;;;;;;12455917;28;20057;-38
2023/03/31 17:23:20;;;;;;;4.82;1.35;;;10.60;99.90;;;;;;12453049;28;20050;-38
2023/03/31 17:29:23;;;;;;;5.55;1.40;;;10.60;99.90;;;;;;12479389;28;20077;-38
2023/03/31 17:35:25;;;;;;;7.75;1.70;;;10.60;99.90;;;;;;12463760;28;20087;-38
2023/03/31 17:41:30;;;;;;;8.93;1.80;;;10.50;99.90;;;;;;12457137;28;20048;-38
2023/03/31 17:47:32;;;;;;;9.27;1.80;;;10.30;99.90;;;;;;12454080;28;20421;-38
2023/03/31 17:53:35;;;;;;;7.45;1.75;;;10.10;99.90;;;;;;12458200;28;20045;-39
2023/03/31 17:59:37;;;;;;;6.50;1.35;;;10.10;99.90;;;;;;12447099;28;20045;-39
2023/03/31 18:05:40;;;;;;;8.52;1.98;;;10.00;99.90;;;;;;12449970;28;20481;-38
2023/03/31 18:11:42;;;;;;;8.38;2.00;;;10.00;99.90;;;;;;12445521;28;20042;-38
2023/03/31 18:17:44;;;;;;;9.02;1.92;;;10.00;99.90;;;;;;12468070;28;20045;-39
2023/03/31 18:23:51;;;;;;;6.30;1.50;;;9.90;99.90;;;;;;12462137;28;20047;-38
2023/03/31 18:29:54;;;;;;;7.25;1.70;;;9.90;99.90;;;;;;12441911;28;20041;-40
2023/03/31 18:35:59;;;;;;;5.70;1.40;;;9.90;99.90;;;;;;12451997;28;20091;-38
2023/03/31 18:42:01;;;;;;;8.50;1.33;;;9.90;99.90;;;;;;12459478;28;20184;-38
2023/03/31 18:48:03;;;;;;;4.32;1.20;;;9.90;99.90;;;;;;12463858;28;20100;-38
2023/03/31 18:54:05;;;;;;;8.90;1.23;;;9.90;99.90;;;;;;12458072;28;20095;-38
2023/03/31 19:00:08;;;;;;;6.97;1.00;;;10.00;99.90;;;;;;12452940;28;20084;-37
2023/03/31 19:06:11;;;;;;;2.42;0.73;;;9.90;99.90;;;;;;12444295;28;20053;-36
2023/03/31 19:12:12;;;;;;;3.85;1.20;;;9.80;99.90;;;;;;12458715;28;20099;-37
2023/03/31 19:18:15;;;;;;;8.20;1.17;;;9.80;99.90;;;;;;12449252;28;20232;-37
2023/03/31 19:24:17;;;;;;;4.97;1.00;;;9.90;99.90;;;;;;12450441;28;20054;-37
2023/03/31 19:30:22;;;;;;;5.03;1.00;;;9.90;99.90;;;;;;12456617;28;20144;-37
2023/03/31 19:36:24;;;;;;;5.13;1.25;;;9.90;99.90;;;;;;12436524;28;20050;-36
2023/03/31 19:42:27;;;;;;;8.90;1.20;;;10.00;99.90;;;;;;12452785;28;20128;-36
2023/03/31 19:48:32;;;;;;;4.00;1.00;;;9.90;99.90;;;;;;12449972;28;20053;-36
2023/03/31 19:54:34;;;;;;;4.72;1.02;;;9.80;99.90;;;;;;12451533;28;20046;-36
2023/03/31 20:00:36;;;;;;;4.68;1.00;;;9.70;99.90;;;;;;12455608;28;20083;-36
2023/03/31 20:06:38;;;;;;;4.15;1.20;;;9.70;99.90;;;;;;12446612;28;20053;-36
2023/03/31 20:12:40;;;;;;;3.95;1.20;;;9.60;99.90;;;;;;12447610;28;20514;-36
2023/03/31 20:18:46;;;;;;;4.63;1.10;;;9.60;99.90;;;;;;12452396;28;20137;-36
2023/03/31 20:24:48;;;;;;;5.38;1.40;;;9.60;99.90;;;;;;12461091;28;20046;-36
2023/03/31 20:30:50;;;;;;;5.05;1.20;;;9.70;99.90;;;;;;12453246;28;20059;-37
2023/03/31 20:36:52;;;;;;;4.40;1.30;;;9.80;99.90;;;;;;12454433;28;20061;-37
2023/03/31 20:42:54;;;;;;;4.07;1.45;;;9.70;99.90;;;;;;12452137;28;20484;-36
2023/03/31 20:48:57;;;;;;;4.13;1.20;;;9.70;99.90;;;;;;12463666;28;20513;-36
2023/03/31 20:54:59;;;;;;;4.72;1.35;;;9.70;99.90;;;;;;12432853;28;20078;-37
2023/03/31 21:01:01;;;;;;;3.35;1.50;;;9.60;99.90;;;;;;12460806;28;20038;-36
2023/03/31 21:07:03;;;;;;;5.20;1.70;;;9.50;99.90;;;;;;12422208;28;20064;-37
2023/03/31 21:13:05;;;;;;;3.50;1.67;;;9.40;99.90;;;;;;12459348;28;20042;-36
2023/03/31 21:19:07;;;;;;;8.52;2.55;;;9.40;99.90;;;;;;12463264;28;20052;-35
2023/03/31 21:25:09;;;;;;;4.93;1.88;;;9.40;99.90;;;;;;12445455;28;20468;-35
2023/03/31 21:31:13;;;;;;;6.05;2.28;;;9.40;99.90;;;;;;12442123;28;20132;-36
2023/03/31 21:37:15;;;;;;;5.28;1.85;;;9.40;99.90;;;;;;12439203;28;20137;-37
2023/03/31 21:43:18;;;;;;;7.07;2.60;;;9.40;99.90;;;;;;12448932;28;20041;-36
2023/03/31 21:49:20;;;;;;;6.63;2.10;;;9.40;99.90;;;;;;12451496;28;20136;-36
2023/03/31 21:55:22;;;;;;;5.47;2.20;;;9.40;99.90;;;;;;12448738;28;20164;-36
2023/03/31 22:01:24;;;;;;;7.93;2.40;;;9.30;99.90;;;;;;12448192;28;20046;-36
2023/03/31 22:07:26;;;;;;;5.07;2.30;;;9.30;99.90;;;;;;12448783;28;20402;-36
2023/03/31 22:13:28;;;;;;;7.25;2.33;;;9.30;99.90;;;;;;12429646;28;20488;-37
2023/03/31 22:19:30;;;;;;;5.32;2.10;;;9.20;99.90;;;;;;12461756;28;20072;-37
2023/03/31 22:25:32;;;;;;;7.00;1.90;;;9.20;99.90;;;;;;12459968;28;20057;-37
2023/03/31 22:31:34;;;;;;;6.75;2.28;;;9.20;99.90;;;;;;12456116;28;20041;-37
2023/03/31 22:37:36;;;;;;;4.20;2.05;;;9.20;99.90;;;;;;12450654;28;22472;-37
2023/03/31 22:43:38;;;;;;;4.68;1.85;;;9.20;99.90;;;;;;12440583;28;20046;-37
2023/03/31 22:49:40;;;;;;;6.25;1.65;;;9.20;99.90;;;;;;12444887;28;20050;-36
2023/03/31 22:55:43;;;;;;;6.80;1.83;;;9.10;99.90;;;;;;12436132;28;20058;-37
2023/03/31 23:01:55;;;;;;;5.28;1.40;;;9.20;99.90;;;;;;12441971;28;20081;-37
2023/03/31 23:07:57;;;;;;;4.43;1.48;;;9.10;99.90;;;;;;12444177;28;20054;-37
2023/03/31 23:13:59;;;;;;;7.68;1.80;;;9.10;99.90;;;;;;12437953;28;20099;-37
2023/03/31 23:20:02;;;;;;;7.22;1.83;;;9.10;99.90;;;;;;12460434;28;20053;-36
2023/03/31 23:26:05;;;;;;;2.27;1.50;;;9.00;99.90;;;;;;12468112;28;20083;-36
2023/03/31 23:32:07;;;;;;;4.63;1.80;;;9.00;99.90;;;;;;12458396;28;20175;-37
2023/03/31 23:38:08;;;;;;;2.72;1.73;;;9.00;99.90;;;;;;12446455;28;20056;-37
2023/03/31 23:44:11;;;;;;;8.15;2.17;;;8.90;99.90;;;;;;12465753;28;20045;-37
2023/03/31 23:50:13;;;;;;;5.78;2.28;;;8.90;99.90;;;;;;12472165;28;20555;-37
2023/03/31 23:56:15;;;;;;;4.13;2.13;;;8.90;99.90;;;;;;12437532;28;20107;-36
